createdAt,value
2017-12-28T00:02:06.512Z,17.23
2017-12-28T00:04:34.512Z,17.87
2017-12-28T00:07:02.351Z,16.93
2017-12-28T00:09:30.108Z,19.77
2017-12-28T00:11:57.785Z,15.67
2017-12-28T00:14:26.588Z,18.23
2017-12-28T00:16:54.290Z,19.17
2017-12-28T00:19:22.033Z,12.50
2017-12-28T00:21:49.640Z,5.43
2017-12-28T00:24:17.251Z,4.23
2017-12-28T00:26:45.615Z,4.83
2017-12-28T00:29:13.260Z,5.77
2017-12-28T00:31:40.861Z,2.83
2017-12-28T00:34:09.397Z,4.23
2017-12-28T00:36:37.244Z,4.13
2017-12-28T00:39:05.455Z,3.90
2017-12-28T00:41:34.407Z,4.57
2017-12-28T00:44:04.660Z,4.43
2017-12-28T00:46:32.485Z,4.40
2017-12-28T00:49:00.157Z,4.40
2017-12-28T00:51:29.439Z,4.30
2017-12-28T00:53:58.283Z,4.13
2017-12-28T00:56:26.147Z,3.93
2017-12-28T00:58:53.829Z,3.40
2017-12-28T01:01:21.510Z,3.40
2017-12-28T01:03:49.918Z,3.53
2017-12-28T01:06:18.104Z,3.37
2017-12-28T01:08:45.943Z,4.77
2017-12-28T01:11:14.664Z,3.40
2017-12-28T01:13:42.409Z,2.93
2017-12-28T01:16:10.074Z,3.10
2017-12-28T01:18:38.062Z,3.47
2017-12-28T01:21:05.653Z,3.07
2017-12-28T01:23:33.575Z,3.50
2017-12-28T01:26:05.730Z,3.50
2017-12-28T01:28:33.352Z,3.67
2017-12-28T01:31:01.038Z,3.30
2017-12-28T01:33:28.635Z,3.13
2017-12-28T01:35:56.229Z,3.53
2017-12-28T01:38:23.926Z,3.27
2017-12-28T01:40:51.653Z,5.37
2017-12-28T01:43:19.360Z,3.80
2017-12-28T01:45:47.036Z,4.23
2017-12-28T01:48:15.504Z,2.20
2017-12-28T01:50:43.890Z,2.80
2017-12-28T01:53:12.193Z,3.93
2017-12-28T01:55:45.681Z,2.10
2017-12-28T01:58:13.519Z,3.43
2017-12-28T02:00:41.161Z,6.30
2017-12-28T02:03:09.464Z,3.03
2017-12-28T02:05:37.245Z,4.10
2017-12-28T02:08:05.890Z,3.20
2017-12-28T02:10:33.502Z,3.30
2017-12-28T02:13:01.216Z,5.53
2017-12-28T02:15:28.902Z,7.77
2017-12-28T02:17:56.671Z,6.40
2017-12-28T02:20:24.423Z,5.40
2017-12-28T02:22:53.148Z,3.53
2017-12-28T02:25:20.985Z,5.23
2017-12-28T02:27:48.949Z,7.00
2017-12-28T02:30:17.005Z,7.97
2017-12-28T02:32:44.727Z,3.70
2017-12-28T02:35:12.462Z,4.40
2017-12-28T02:37:40.374Z,5.57
2017-12-28T02:40:08.152Z,7.37
2017-12-28T02:42:35.889Z,9.50
2017-12-28T02:45:04.462Z,5.57
2017-12-28T02:47:32.181Z,6.93
2017-12-28T02:49:59.881Z,6.57
2017-12-28T02:52:28.312Z,4.70
2017-12-28T02:54:59.681Z,6.73
2017-12-28T02:57:27.831Z,3.37
2017-12-28T02:59:55.831Z,8.57
2017-12-28T03:02:23.918Z,5.20
2017-12-28T03:04:51.665Z,6.70
2017-12-28T03:07:19.736Z,6.47
2017-12-28T03:09:48.367Z,6.40
2017-12-28T03:12:16.063Z,6.60
2017-12-28T03:14:44.159Z,5.47
2017-12-28T03:17:12.011Z,4.97
2017-12-28T03:19:41.720Z,8.00
2017-12-28T03:22:09.377Z,8.50
2017-12-28T03:24:38.376Z,7.30
2017-12-28T03:27:06.113Z,3.13
2017-12-28T03:29:34.562Z,8.03
2017-12-28T03:32:02.285Z,7.47
2017-12-28T03:34:30.413Z,8.97
2017-12-28T03:36:58.890Z,10.67
2017-12-28T03:39:26.624Z,3.60
2017-12-28T03:41:54.339Z,11.13
2017-12-28T03:44:22.080Z,8.70
2017-12-28T03:46:50.593Z,5.20
2017-12-28T03:49:18.525Z,8.00
2017-12-28T03:51:46.222Z,5.17
2017-12-28T03:54:17.736Z,8.83
2017-12-28T03:56:46.146Z,8.07
2017-12-28T03:59:15.288Z,11.03
2017-12-28T04:01:44.545Z,6.10
2017-12-28T04:04:13.149Z,11.00
2017-12-28T04:06:40.886Z,11.60
2017-12-28T04:09:09.439Z,7.80
2017-12-28T04:11:37.640Z,6.03
2017-12-28T04:14:08.912Z,12.70
2017-12-28T04:16:37.891Z,10.57
2017-12-28T04:19:05.622Z,13.70
2017-12-28T04:21:34.000Z,7.47
2017-12-28T04:24:02.399Z,9.03
2017-12-28T04:26:30.695Z,9.80
2017-12-28T04:28:59.192Z,13.53
2017-12-28T04:31:27.615Z,8.17
2017-12-28T04:33:55.432Z,10.20
2017-12-28T04:36:23.185Z,11.53
2017-12-28T04:38:50.918Z,9.27
2017-12-28T04:41:18.623Z,13.30
2017-12-28T04:43:47.136Z,9.60
2017-12-28T04:46:14.867Z,9.70
2017-12-28T04:48:42.576Z,9.63
2017-12-28T04:51:10.267Z,5.87
2017-12-28T04:53:38.538Z,8.97
2017-12-28T04:56:06.309Z,10.20
2017-12-28T04:58:34.030Z,16.60
2017-12-28T05:01:01.723Z,9.33
2017-12-28T05:03:29.405Z,12.80
2017-12-28T05:06:00.351Z,15.93
2017-12-28T05:08:28.046Z,12.60
2017-12-28T05:10:55.902Z,9.23
2017-12-28T05:13:24.329Z,10.17
2017-12-28T05:15:52.035Z,10.93
2017-12-28T05:18:19.780Z,10.40
2017-12-28T05:20:47.487Z,12.20
2017-12-28T05:23:15.184Z,16.30
2017-12-28T05:25:42.876Z,13.33
2017-12-28T05:28:10.583Z,19.63
2017-12-28T05:30:39.269Z,8.63
2017-12-28T05:33:07.082Z,16.87
2017-12-28T05:35:34.896Z,17.60
2017-12-28T05:38:02.615Z,7.37
2017-12-28T05:40:30.312Z,5.63
2017-12-28T05:42:58.041Z,10.37
2017-12-28T05:45:25.729Z,13.63
2017-12-28T05:47:53.443Z,9.53
2017-12-28T05:50:21.168Z,9.97
2017-12-28T05:52:48.841Z,15.23
2017-12-28T05:55:17.340Z,12.73
2017-12-28T05:57:45.075Z,10.87
2017-12-28T06:00:12.823Z,11.37
2017-12-28T06:02:40.561Z,15.33
2017-12-28T06:05:08.323Z,7.17
2017-12-28T06:07:36.046Z,8.97
2017-12-28T06:10:04.488Z,12.30
2017-12-28T06:12:32.186Z,16.23
2017-12-28T06:15:00.686Z,12.00
2017-12-28T06:17:28.435Z,13.23
2017-12-28T06:19:56.144Z,13.77
2017-12-28T06:22:23.838Z,8.20
2017-12-28T06:24:51.540Z,15.30
2017-12-28T06:27:20.052Z,16.00
2017-12-28T06:29:47.738Z,11.53
2017-12-28T06:32:15.468Z,13.23
2017-12-28T06:34:50.443Z,12.23
2017-12-28T06:37:18.180Z,17.73
2017-12-28T06:39:45.849Z,10.93
2017-12-28T06:42:13.573Z,14.90
2017-12-28T06:44:42.051Z,10.10
2017-12-28T06:47:10.542Z,9.67
2017-12-28T06:49:39.011Z,11.93
2017-12-28T06:52:06.778Z,12.97
2017-12-28T06:54:35.253Z,11.70
2017-12-28T06:57:03.748Z,11.53
2017-12-28T06:59:31.445Z,12.43
2017-12-28T07:01:59.123Z,14.63
2017-12-28T07:04:28.899Z,11.83
2017-12-28T07:06:56.630Z,12.47
2017-12-28T07:09:24.341Z,14.47
2017-12-28T07:11:52.052Z,12.97
2017-12-28T07:14:19.766Z,12.73
2017-12-28T07:16:47.464Z,13.90
2017-12-28T07:19:15.159Z,12.17
2017-12-28T07:21:42.854Z,15.27
2017-12-28T07:24:10.706Z,16.07
2017-12-28T07:26:39.138Z,13.20
2017-12-28T07:29:06.854Z,14.17
2017-12-28T07:31:34.547Z,15.37
2017-12-28T07:34:02.309Z,11.03
2017-12-28T07:36:30.018Z,16.53
2017-12-28T07:38:57.653Z,17.30
2017-12-28T07:41:25.426Z,14.33
2017-12-28T07:43:53.173Z,19.80
2017-12-28T07:46:20.873Z,17.10
2017-12-28T07:48:48.603Z,20.37
2017-12-28T07:51:16.339Z,20.80
2017-12-28T07:53:44.054Z,29.63
2017-12-28T07:56:11.801Z,20.30
2017-12-28T07:58:39.524Z,23.80
2017-12-28T08:01:07.254Z,28.77
2017-12-28T08:03:34.968Z,21.67
2017-12-28T08:06:02.688Z,30.30
2017-12-28T08:08:30.380Z,23.07
2017-12-28T08:10:58.867Z,12.87
2017-12-28T08:13:27.361Z,15.57
2017-12-28T08:15:56.430Z,13.73
2017-12-28T08:18:29.851Z,19.57
2017-12-28T08:20:57.876Z,14.87
2017-12-28T08:23:25.566Z,11.77
2017-12-28T08:25:53.274Z,20.40
2017-12-28T08:28:21.756Z,19.43
2017-12-28T08:30:49.461Z,18.10
2017-12-28T08:33:17.173Z,17.63
2017-12-28T08:35:44.877Z,16.27
2017-12-28T08:38:12.529Z,17.20
2017-12-28T08:40:40.185Z,11.07
2017-12-28T08:43:07.901Z,14.80
2017-12-28T08:45:37.391Z,19.30
2017-12-28T08:48:05.092Z,20.30
2017-12-28T08:50:32.801Z,15.10
2017-12-28T08:53:00.551Z,13.93
2017-12-28T08:55:28.306Z,18.67
2017-12-28T08:57:55.947Z,15.03
2017-12-28T09:00:23.650Z,16.00
2017-12-28T09:02:51.338Z,17.30
2017-12-28T09:05:19.008Z,15.33
2017-12-28T09:07:51.004Z,11.43
2017-12-28T09:10:19.941Z,15.80
2017-12-28T09:12:47.640Z,17.07
2017-12-28T09:15:16.175Z,15.93
2017-12-28T09:17:43.844Z,12.03
2017-12-28T09:20:11.453Z,23.87
2017-12-28T09:22:40.252Z,16.00
2017-12-28T09:25:07.978Z,14.17
2017-12-28T09:27:35.681Z,14.37
2017-12-28T09:30:04.311Z,17.70
2017-12-28T09:32:32.257Z,18.40
2017-12-28T09:35:03.103Z,14.67
2017-12-28T09:37:30.876Z,14.13
2017-12-28T09:39:58.552Z,15.80
2017-12-28T09:42:27.423Z,17.87
2017-12-28T09:44:55.616Z,15.77
2017-12-28T09:47:23.333Z,9.10
2017-12-28T09:49:51.043Z,13.63
2017-12-28T09:52:18.720Z,15.23
2017-12-28T09:54:46.429Z,18.63
2017-12-28T09:57:14.135Z,15.10
2017-12-28T09:59:41.889Z,14.20
2017-12-28T10:02:09.645Z,11.37
2017-12-28T10:04:38.458Z,18.00
2017-12-28T10:07:06.192Z,11.60
2017-12-28T10:09:33.867Z,11.73
2017-12-28T10:12:01.563Z,18.53
2017-12-28T10:14:29.251Z,11.50
2017-12-28T10:16:56.950Z,10.90
2017-12-28T10:19:24.646Z,17.27
2017-12-28T10:21:52.276Z,12.30
2017-12-28T10:24:19.992Z,13.33
2017-12-28T10:26:47.684Z,14.73
2017-12-28T10:29:16.147Z,16.77
2017-12-28T10:31:43.899Z,18.73
2017-12-28T10:34:12.611Z,15.30
2017-12-28T10:36:40.276Z,18.83
2017-12-28T10:39:08.773Z,11.03
2017-12-28T10:41:36.488Z,15.53
2017-12-28T10:44:04.184Z,16.87
2017-12-28T10:46:32.663Z,15.10
2017-12-28T10:49:00.992Z,18.80
2017-12-28T10:51:28.690Z,15.17
2017-12-28T10:53:56.392Z,19.00
2017-12-28T10:56:24.094Z,12.83
2017-12-28T10:58:51.809Z,17.37
2017-12-28T11:01:19.553Z,16.17
2017-12-28T11:03:47.247Z,13.23
2017-12-28T11:06:14.960Z,17.17
2017-12-28T11:08:42.677Z,19.33
2017-12-28T11:11:10.410Z,16.83
2017-12-28T11:13:38.106Z,15.60
2017-12-28T11:16:05.765Z,17.13
2017-12-28T11:18:33.411Z,14.53
2017-12-28T11:21:01.130Z,17.97
2017-12-28T11:23:28.820Z,16.27
2017-12-28T11:25:57.511Z,14.27
2017-12-28T11:28:25.233Z,12.93
2017-12-28T11:30:53.168Z,18.13
2017-12-28T11:33:26.100Z,13.07
2017-12-28T11:35:54.030Z,14.13
2017-12-28T11:38:21.734Z,13.27
2017-12-28T11:40:49.416Z,19.10
2017-12-28T11:43:17.133Z,13.10
2017-12-28T11:45:45.830Z,14.63
2017-12-28T11:48:13.555Z,18.63
2017-12-28T11:50:42.041Z,11.20
2017-12-28T11:53:09.825Z,12.90
2017-12-28T11:55:43.324Z,15.93
2017-12-28T11:58:11.134Z,15.77
2017-12-28T12:00:44.298Z,9.63
2017-12-28T12:03:12.061Z,17.37
2017-12-28T12:05:45.296Z,17.23
2017-12-28T12:08:18.505Z,14.97
2017-12-28T12:10:51.133Z,9.27
2017-12-28T12:13:18.810Z,8.10
2017-12-28T12:15:46.516Z,11.30
2017-12-28T12:18:14.277Z,12.60
2017-12-28T12:20:41.974Z,9.77
2017-12-28T12:23:09.742Z,11.43
2017-12-28T12:25:37.422Z,9.03
2017-12-28T12:28:05.147Z,9.23
2017-12-28T12:30:32.870Z,10.27
2017-12-28T12:33:00.592Z,13.83
2017-12-28T12:35:28.309Z,12.00
2017-12-28T12:37:56.022Z,9.67
2017-12-28T12:40:23.702Z,13.90
2017-12-28T12:42:51.402Z,9.90
2017-12-28T12:45:20.025Z,12.13
2017-12-28T12:47:48.499Z,9.03
2017-12-28T12:50:16.236Z,8.40
2017-12-28T12:52:43.973Z,11.80
2017-12-28T12:55:11.659Z,11.10
2017-12-28T12:57:39.382Z,7.47
2017-12-28T13:00:07.094Z,9.73
2017-12-28T13:02:34.857Z,9.63
2017-12-28T13:05:02.494Z,13.73
2017-12-28T13:07:30.205Z,11.50
2017-12-28T13:09:57.886Z,11.67
2017-12-28T13:12:25.599Z,10.77
2017-12-28T13:14:54.237Z,10.10
2017-12-28T13:17:22.000Z,12.20
2017-12-28T13:19:49.664Z,11.83
2017-12-28T13:22:18.153Z,17.83
2017-12-28T13:24:45.869Z,14.83
2017-12-28T13:27:13.590Z,12.80
2017-12-28T13:29:41.300Z,12.10
2017-12-28T13:32:08.985Z,11.47
2017-12-28T13:34:36.677Z,10.93
2017-12-28T13:37:04.408Z,7.70
2017-12-28T13:39:32.119Z,14.20
2017-12-28T13:41:59.781Z,10.93
2017-12-28T13:44:27.743Z,14.87
2017-12-28T13:46:55.447Z,11.83
2017-12-28T13:49:23.144Z,10.93
2017-12-28T13:51:51.648Z,11.03
2017-12-28T13:54:19.354Z,12.10
2017-12-28T13:56:47.042Z,15.73
2017-12-28T13:59:14.774Z,11.40
2017-12-28T14:01:42.496Z,10.67
2017-12-28T14:04:10.204Z,12.17
2017-12-28T14:06:37.911Z,6.27
2017-12-28T14:09:05.656Z,16.97
2017-12-28T14:11:33.356Z,9.40
2017-12-28T14:14:03.963Z,9.03
2017-12-28T14:16:31.660Z,11.27
2017-12-28T14:18:59.349Z,14.27
2017-12-28T14:21:27.796Z,11.77
2017-12-28T14:23:56.232Z,10.37
2017-12-28T14:26:23.939Z,11.53
2017-12-28T14:28:52.420Z,12.77
2017-12-28T14:31:20.130Z,7.57
2017-12-28T14:33:48.018Z,13.27
2017-12-28T14:36:15.746Z,10.43
2017-12-28T14:38:43.468Z,10.33
2017-12-28T14:41:11.147Z,7.43
2017-12-28T14:43:38.825Z,7.57
2017-12-28T14:46:06.551Z,12.13
2017-12-28T14:48:34.294Z,12.93
2017-12-28T14:51:01.995Z,6.00
2017-12-28T14:53:29.712Z,8.03
2017-12-28T14:55:57.596Z,12.47
2017-12-28T14:58:25.354Z,12.17
2017-12-28T15:00:53.049Z,11.97
2017-12-28T15:03:20.718Z,9.43
2017-12-28T15:05:52.566Z,6.67
2017-12-28T15:08:20.280Z,7.83
2017-12-28T15:10:47.997Z,7.37
2017-12-28T15:13:15.704Z,6.37
2017-12-28T15:15:43.392Z,11.03
2017-12-28T15:18:11.049Z,9.63
2017-12-28T15:20:38.737Z,6.27
2017-12-28T15:23:06.450Z,8.67
2017-12-28T15:25:34.145Z,6.83
2017-12-28T15:28:01.881Z,9.37
2017-12-28T15:30:29.629Z,8.67
2017-12-28T15:32:57.532Z,10.23
2017-12-28T15:35:29.674Z,10.53
2017-12-28T15:37:58.164Z,8.30
2017-12-28T15:40:25.862Z,9.53
2017-12-28T15:42:53.555Z,6.67
2017-12-28T15:45:21.270Z,10.97
2017-12-28T15:47:48.954Z,6.50
2017-12-28T15:50:16.664Z,6.60
2017-12-28T15:52:44.366Z,6.23
2017-12-28T15:55:12.148Z,10.93
2017-12-28T15:57:39.838Z,7.53
2017-12-28T16:00:07.558Z,11.10
2017-12-28T16:02:35.255Z,7.07
2017-12-28T16:05:04.111Z,9.17
2017-12-28T16:07:31.829Z,8.63
2017-12-28T16:09:59.535Z,7.87
2017-12-28T16:12:27.257Z,9.87
2017-12-28T16:14:54.941Z,10.90
2017-12-28T16:17:22.646Z,9.87
2017-12-28T16:19:50.340Z,9.73
2017-12-28T16:22:18.031Z,10.60
2017-12-28T16:24:46.429Z,9.93
2017-12-28T16:27:14.171Z,12.90
2017-12-28T16:29:41.904Z,11.30
2017-12-28T16:32:09.621Z,11.73
2017-12-28T16:34:39.271Z,8.43
2017-12-28T16:37:06.984Z,12.80
2017-12-28T16:39:34.747Z,11.10
2017-12-28T16:42:03.258Z,10.83
2017-12-28T16:44:30.954Z,9.37
2017-12-28T16:46:58.654Z,10.53
2017-12-28T16:49:26.320Z,11.53
2017-12-28T16:51:54.747Z,15.13
2017-12-28T16:54:22.500Z,10.37
2017-12-28T16:56:50.237Z,9.07
2017-12-28T16:59:18.577Z,7.97
2017-12-28T17:01:46.301Z,9.17
2017-12-28T17:04:14.962Z,7.50
2017-12-28T17:06:43.493Z,15.23
2017-12-28T17:09:11.183Z,8.53
2017-12-28T17:11:38.906Z,8.77
2017-12-28T17:14:06.587Z,10.70
2017-12-28T17:16:34.252Z,12.27
2017-12-28T17:19:01.991Z,8.63
2017-12-28T17:21:29.654Z,9.93
2017-12-28T17:23:57.313Z,13.23
2017-12-28T17:26:25.001Z,11.30
2017-12-28T17:28:52.656Z,9.43
2017-12-28T17:31:20.255Z,11.23
2017-12-28T17:33:47.857Z,9.43
2017-12-28T17:36:15.475Z,11.60
2017-12-28T17:38:43.109Z,9.97
2017-12-28T17:41:10.772Z,9.73
2017-12-28T17:43:38.495Z,8.80
2017-12-28T17:46:06.205Z,10.80
2017-12-28T17:48:33.849Z,10.30
2017-12-28T17:51:01.557Z,6.60
2017-12-28T17:53:29.246Z,7.83
2017-12-28T17:55:59.890Z,11.60
2017-12-28T17:58:27.611Z,8.87
2017-12-28T18:00:55.280Z,9.27
2017-12-28T18:03:23.008Z,12.40
2017-12-28T18:05:50.705Z,7.80
2017-12-28T18:08:18.366Z,8.87
2017-12-28T18:10:46.018Z,10.40
2017-12-28T18:13:13.790Z,9.97
2017-12-28T18:15:41.453Z,9.43
2017-12-28T18:18:09.174Z,10.13
2017-12-28T18:20:36.907Z,7.43
2017-12-28T18:23:04.524Z,10.43
2017-12-28T18:25:33.201Z,12.23
2017-12-28T18:28:00.868Z,10.27
2017-12-28T18:30:28.628Z,9.53
2017-12-28T18:32:56.316Z,10.37
2017-12-28T18:35:24.039Z,9.00
2017-12-28T18:37:51.763Z,11.30
2017-12-28T18:40:19.424Z,13.57
2017-12-28T18:42:47.164Z,11.60
2017-12-28T18:45:15.295Z,18.77
2017-12-28T18:47:43.750Z,6.17
2017-12-28T18:50:11.413Z,13.40
2017-12-28T18:52:39.149Z,13.10
2017-12-28T18:55:14.376Z,11.13
2017-12-28T18:57:42.082Z,12.80
2017-12-28T19:00:09.844Z,11.57
2017-12-28T19:02:37.514Z,8.17
2017-12-28T19:05:05.219Z,11.67
2017-12-28T19:07:32.910Z,9.73
2017-12-28T19:10:00.632Z,12.57
2017-12-28T19:12:28.345Z,9.73
2017-12-28T19:14:56.030Z,10.30
2017-12-28T19:17:23.711Z,15.80
2017-12-28T19:19:52.178Z,17.63
2017-12-28T19:22:19.871Z,11.83
2017-12-28T19:24:49.726Z,13.03
2017-12-28T19:27:17.439Z,11.40
2017-12-28T19:29:45.973Z,8.70
2017-12-28T19:32:13.691Z,15.70
2017-12-28T19:34:41.374Z,12.37
2017-12-28T19:37:09.126Z,12.93
2017-12-28T19:39:36.898Z,10.87
2017-12-28T19:42:04.628Z,12.97
2017-12-28T19:44:33.169Z,10.93
2017-12-28T19:47:00.918Z,8.87
2017-12-28T19:49:28.666Z,13.47
2017-12-28T19:51:56.416Z,13.90
2017-12-28T19:54:25.091Z,10.03
2017-12-28T19:56:52.769Z,11.30
2017-12-28T19:59:21.307Z,10.87
2017-12-28T20:01:49.033Z,14.43
2017-12-28T20:04:16.792Z,13.57
2017-12-28T20:06:44.519Z,14.30
2017-12-28T20:09:12.219Z,11.13
2017-12-28T20:11:39.893Z,9.13
2017-12-28T20:14:07.546Z,14.77
2017-12-28T20:16:35.284Z,13.97
2017-12-28T20:19:02.981Z,12.47
2017-12-28T20:21:31.472Z,9.60
2017-12-28T20:24:02.894Z,11.97
2017-12-28T20:26:30.601Z,9.23
2017-12-28T20:28:58.321Z,16.60
2017-12-28T20:31:26.804Z,12.20
2017-12-28T20:33:54.522Z,13.23
2017-12-28T20:36:22.219Z,16.20
2017-12-28T20:38:49.907Z,14.27
2017-12-28T20:41:18.408Z,13.43
2017-12-28T20:43:46.123Z,16.33
2017-12-28T20:46:13.852Z,13.10
2017-12-28T20:48:41.591Z,14.10
2017-12-28T20:51:09.293Z,20.43
2017-12-28T20:53:36.936Z,14.50
2017-12-28T20:56:04.657Z,17.03
2017-12-28T20:58:32.373Z,15.53
2017-12-28T21:01:00.073Z,20.20
2017-12-28T21:03:27.758Z,14.33
2017-12-28T21:05:55.512Z,17.67
2017-12-28T21:08:23.239Z,15.37
2017-12-28T21:10:50.952Z,15.30
2017-12-28T21:13:19.412Z,20.97
2017-12-28T21:15:47.225Z,11.93
2017-12-28T21:18:14.884Z,14.40
2017-12-28T21:20:42.596Z,15.13
2017-12-28T21:23:10.261Z,13.20
2017-12-28T21:25:37.917Z,15.30
2017-12-28T21:28:05.674Z,12.00
2017-12-28T21:30:33.405Z,10.90
2017-12-28T21:33:01.096Z,17.07
2017-12-28T21:35:28.715Z,16.77
2017-12-28T21:37:56.396Z,13.93
2017-12-28T21:40:24.091Z,16.10
2017-12-28T21:42:51.740Z,15.77
2017-12-28T21:45:20.705Z,14.67
2017-12-28T21:47:48.452Z,12.13
2017-12-28T21:50:16.098Z,17.70
2017-12-28T21:52:43.788Z,14.93
2017-12-28T21:55:12.246Z,14.50
2017-12-28T21:57:39.939Z,17.23
2017-12-28T22:00:08.391Z,15.27
2017-12-28T22:02:36.110Z,18.20
2017-12-28T22:05:03.845Z,15.60
2017-12-28T22:07:32.372Z,12.43
2017-12-28T22:10:00.089Z,15.83
2017-12-28T22:12:28.587Z,16.57
2017-12-28T22:14:57.563Z,18.77
2017-12-28T22:17:25.288Z,19.17
2017-12-28T22:19:53.030Z,17.77
2017-12-28T22:22:20.672Z,15.00
2017-12-28T22:24:49.135Z,15.73
2017-12-28T22:27:16.997Z,13.60
2017-12-28T22:29:44.676Z,13.70
2017-12-28T22:32:12.378Z,17.03
2017-12-28T22:34:40.025Z,13.67
2017-12-28T22:37:07.768Z,13.90
2017-12-28T22:39:35.463Z,13.73
2017-12-28T22:42:03.206Z,17.83
2017-12-28T22:44:31.014Z,15.37
2017-12-28T22:46:58.725Z,20.77
2017-12-28T22:49:27.242Z,18.87
2017-12-28T22:51:54.906Z,20.60
2017-12-28T22:54:22.585Z,17.03
2017-12-28T22:56:50.259Z,16.83
2017-12-28T22:59:18.257Z,17.70
2017-12-28T23:01:45.936Z,23.97
2017-12-28T23:04:14.395Z,14.03
2017-12-28T23:06:42.102Z,13.53
2017-12-28T23:09:09.772Z,16.30
2017-12-28T23:11:37.393Z,14.73
2017-12-28T23:14:05.183Z,16.13
2017-12-28T23:16:32.886Z,18.63
2017-12-28T23:19:00.575Z,18.27
2017-12-28T23:21:29.413Z,16.40
2017-12-28T23:23:57.143Z,14.43
2017-12-28T23:26:24.817Z,16.27
2017-12-28T23:28:53.270Z,16.93
2017-12-28T23:31:20.995Z,17.43
2017-12-28T23:33:48.675Z,16.17
2017-12-28T23:36:16.389Z,19.07
2017-12-28T23:38:44.855Z,18.27
2017-12-28T23:41:12.577Z,22.93
2017-12-28T23:43:40.265Z,17.30
2017-12-28T23:46:07.995Z,12.30
2017-12-28T23:48:35.642Z,19.63
2017-12-28T23:51:04.116Z,19.63
2017-12-28T23:53:31.815Z,22.17
2017-12-28T23:55:59.427Z,18.47
2017-12-28T23:58:27.834Z,18.70
